Time;durP1;ratioP1;P1;durP2;ratioP2;P2;SDS_P1;SDS_P2;PMS_P1;PMS_P2;Temp;Humidity;BMP_temperature;BMP_pressure;BME280_temperature;BME280_humidity;BME280_pressure;Samples;Min_cycle;Max_cycle;Signal;HPM_P1;HPM_P2
2023/01/30 00:00:56;;;;;;;;;;;;;;;-5.90;100.00;99187.06;4959961;28;20013;-58
2023/01/30 00:03:22;;;;;;;;;;;;;;;-6.18;100.00;99183.81;4956645;28;19970;-58
2023/01/30 00:05:48;;;;;;;;;;;;;;;-6.30;100.00;99173.19;4982293;28;19970;-59
2023/01/30 00:08:13;;;;;;;;;;;;;;;-6.30;100.00;99195.63;5034700;28;20337;-60
2023/01/30 00:10:39;;;;;;;;;;;;;;;-6.40;100.00;99190.88;5034965;28;19952;-59
2023/01/30 00:13:04;;;;;;;;;;;;;;;-6.44;100.00;99186.50;5033874;28;19954;-59
2023/01/30 00:15:30;;;;;;;;;;;;;;;-6.47;100.00;99180.59;5042318;28;20359;-59
2023/01/30 00:17:55;;;;;;;;;;;;;;;-6.50;100.00;99180.44;5032955;28;19960;-58
2023/01/30 00:20:21;;;;;;;;;;;;;;;-6.52;100.00;99176.09;5033123;28;19955;-59
2023/01/30 00:22:46;;;;;;;;;;;;;;;-6.51;100.00;99168.72;5034416;28;19959;-58
2023/01/30 00:25:12;;;;;;;;;;;;;;;-6.57;100.00;99165.00;5036323;28;19985;-58
2023/01/30 00:27:37;;;;;;;;;;;;;;;-6.59;100.00;99172.44;5033417;28;20423;-59
2023/01/30 00:30:04;;;;;;;;;;;;;;;-6.57;100.00;99163.38;5033966;28;19959;-58
2023/01/30 00:32:30;;;;;;;;;;;;;;;-6.56;100.00;99147.66;5034366;28;19958;-59
2023/01/30 00:34:56;;;;;;;;;;;;;;;-6.56;100.00;99151.78;5041125;28;19964;-58
2023/01/30 00:37:21;;;;;;;;;;;;;;;-6.61;100.00;99155.66;5040297;28;19966;-58
2023/01/30 00:39:48;;;;;;;;;;;;;;;-6.58;100.00;99154.22;5048395;28;20452;-57
2023/01/30 00:47:42;;;;;;;;;;;;;;;-6.53;100.00;99137.84;5031741;28;20054;-59
2023/01/30 00:50:08;;;;;;;;;;;;;;;-6.56;100.00;99134.31;5033981;28;19957;-59
2023/01/30 00:52:34;;;;;;;;;;;;;;;-6.55;100.00;99134.44;5039875;28;20393;-58
2023/01/30 00:54:59;;;;;;;;;;;;;;;-6.58;100.00;99129.28;5031411;28;19951;-59
2023/01/30 00:57:25;;;;;;;;;;;;;;;-6.55;100.00;99124.44;5035301;28;20227;-59
2023/01/30 00:59:50;;;;;;;;;;;;;;;-6.57;100.00;99123.50;5032467;28;20227;-59
2023/01/30 01:02:16;;;;;;;;;;;;;;;-6.55;100.00;99123.59;5032140;28;20635;-61
2023/01/30 01:04:44;;;;;;;;;;;;;;;-6.53;100.00;99112.06;5035476;28;20562;-59
2023/01/30 01:07:11;;;;;;;;;;;;;;;-6.49;100.00;99112.31;5035556;28;19984;-59
2023/01/30 01:09:37;;;;;;;;;;;;;;;-6.49;100.00;99104.81;5044631;28;20243;-58
2023/01/30 01:12:03;;;;;;;;;;;;;;;-6.47;100.00;99108.28;5034029;28;20024;-58
2023/01/30 01:14:29;;;;;;;;;;;;;;;-6.48;100.00;99106.56;5034465;28;19954;-59
2023/01/30 01:16:54;;;;;;;;;;;;;;;-6.50;100.00;99098.16;5031783;28;19958;-58
2023/01/30 01:19:21;;;;;;;;;;;;;;;-6.44;100.00;99096.72;5032854;28;19962;-58
2023/01/30 01:21:46;;;;;;;;;;;;;;;-6.42;100.00;99082.72;5032895;28;20313;-59
2023/01/30 01:24:13;;;;;;;;;;;;;;;-6.43;100.00;99074.38;5030753;28;20014;-59
2023/01/30 01:26:40;;;;;;;;;;;;;;;-6.40;100.00;99074.53;5032831;28;20067;-59
2023/01/30 01:29:12;;;;;;;;;;;;;;;-6.34;100.00;99071.53;5022649;28;20351;-58
2023/01/30 01:31:38;;;;;;;;;;;;;;;-6.35;100.00;99057.34;5029806;28;19956;-60
2023/01/30 01:34:04;;;;;;;;;;;;;;;-6.32;100.00;99057.53;5029380;28;19961;-59
2023/01/30 01:36:29;;;;;;;;;;;;;;;-6.29;100.00;99057.69;5031625;28;20393;-58
2023/01/30 01:38:55;;;;;;;;;;;;;;;-6.30;100.00;99053.47;5031166;28;19954;-58
2023/01/30 01:41:20;;;;;;;;;;;;;;;-6.33;100.00;99049.19;5034754;28;19966;-59
2023/01/30 01:44:04;;;;;;;;;;;;;;;-6.32;100.00;99045.06;5033533;28;20495;-59
2023/01/30 01:46:42;;;;;;;;;;;;;;;-6.42;100.00;99047.81;5034207;28;19971;-59
2023/01/30 01:49:16;;;;;;;;;;;;;;;-6.38;100.00;99043.09;5031871;28;19986;-59
2023/01/30 01:51:45;;;;;;;;;;;;;;;-6.41;100.00;99037.06;5029518;28;19960;-59
2023/01/30 01:54:14;;;;;;;;;;;;;;;-6.41;100.00;99037.06;5031275;28;20044;-58
2023/01/30 01:56:42;;;;;;;;;;;;;;;-6.40;100.00;99028.78;5039884;28;19993;-60
2023/01/30 01:59:11;;;;;;;;;;;;;;;-6.38;100.00;99034.75;5029545;28;19959;-59
2023/01/30 02:01:36;;;;;;;;;;;;;;;-6.38;100.00;99023.13;5031685;28;20050;-58
2023/01/30 02:04:03;;;;;;;;;;;;;;;-6.36;100.00;99030.66;5035043;28;19984;-59
2023/01/30 02:06:29;;;;;;;;;;;;;;;-6.32;100.00;99025.09;5032370;28;19986;-60
2023/01/30 02:08:58;;;;;;;;;;;;;;;-6.37;100.00;99021.50;5029903;28;20035;-59
2023/01/30 02:11:23;;;;;;;;;;;;;;;-6.43;100.00;99026.16;5028998;28;19968;-59
2023/01/30 02:13:49;;;;;;;;;;;;;;;-6.42;100.00;99015.41;5026502;28;19956;-59
2023/01/30 02:16:15;;;;;;;;;;;;;;;-6.41;100.00;99018.00;5028597;28;20431;-60
2023/01/30 02:18:44;;;;;;;;;;;;;;;-6.41;100.00;99005.53;5031074;28;19970;-61
2023/01/30 02:21:28;;;;;;;;;;;;;;;-6.29;100.00;98997.81;5030912;28;19957;-57
2023/01/30 02:24:09;;;;;;;;;;;;;;;-6.33;100.00;99003.44;5039489;28;20397;-57
2023/01/30 02:26:53;;;;;;;;;;;;;;;-6.29;100.00;98997.81;5030213;28;19973;-58
2023/01/30 02:29:40;;;;;;;;;;;;;;;-6.35;100.00;98997.47;5026717;28;20478;-60
2023/01/30 02:32:21;;;;;;;;;;;;;;;-6.37;100.00;98992.44;5029950;28;19956;-59
2023/01/30 02:34:56;;;;;;;;;;;;;;;-6.37;100.00;98976.59;5039349;28;19954;-59
2023/01/30 02:37:28;;;;;;;;;;;;;;;-6.39;100.00;98975.66;5032055;28;19953;-65
2023/01/30 02:40:06;;;;;;;;;;;;;;;-6.38;100.00;98968.28;5031338;28;19951;-59
2023/01/30 02:42:49;;;;;;;;;;;;;;;-6.39;100.00;98973.16;5030940;28;20384;-58
2023/01/30 02:45:19;;;;;;;;;;;;;;;-6.36;100.00;98971.69;5027853;28;19975;-58
2023/01/30 02:47:52;;;;;;;;;;;;;;;-6.35;100.00;98977.53;5026776;28;20003;-59
2023/01/30 02:50:21;;;;;;;;;;;;;;;-6.41;100.00;98969.75;5029272;28;20027;-59
2023/01/30 02:52:47;;;;;;;;;;;;;;;-6.44;100.00;98970.44;5033003;28;20642;-60
2023/01/30 02:55:17;;;;;;;;;;;;;;;-6.46;100.00;98969.50;5029871;28;19965;-59
2023/01/30 02:57:43;;;;;;;;;;;;;;;-6.46;100.00;98964.53;5032839;28;19958;-62
2023/01/30 03:00:09;;;;;;;;;;;;;;;-6.36;100.00;98960.84;5021676;28;20051;-59
2023/01/30 03:02:49;;;;;;;;;;;;;;;-6.42;100.00;98955.56;5030324;28;19960;-59
2023/01/30 03:05:27;;;;;;;;;;;;;;;-6.37;100.00;98961.66;5037066;28;20106;-59
2023/01/30 03:08:04;;;;;;;;;;;;;;;-6.40;100.00;98944.00;5045139;28;19987;-59
2023/01/30 03:10:36;;;;;;;;;;;;;;;-6.44;100.00;98945.50;5033403;28;19953;-59
2023/01/30 03:13:23;;;;;;;;;;;;;;;-6.44;100.00;98934.66;5033606;28;20020;-60
2023/01/30 03:16:10;;;;;;;;;;;;;;;-6.44;100.00;98930.53;5034357;28;20527;-59
2023/01/30 03:18:36;;;;;;;;;;;;;;;-6.42;100.00;98930.63;5034701;28;19960;-58
2023/01/30 03:21:05;;;;;;;;;;;;;;;-6.50;100.00;98925.25;5035185;28;19956;-59
2023/01/30 03:23:30;;;;;;;;;;;;;;;-6.53;100.00;98912.59;5034874;28;19953;-58
2023/01/30 03:25:56;;;;;;;;;;;;;;;-6.62;100.00;98900.50;5035626;28;20346;-59
2023/01/30 03:28:22;;;;;;;;;;;;;;;-6.62;100.00;98910.47;5032161;28;19963;-59
2023/01/30 03:30:48;;;;;;;;;;;;;;;-6.65;100.00;98905.34;5037680;28;19955;-58
2023/01/30 03:33:14;;;;;;;;;;;;;;;-6.67;100.00;98901.06;5026274;28;20331;-60
2023/01/30 03:35:45;;;;;;;;;;;;;;;-6.64;100.00;98896.22;5041736;28;19954;-58
2023/01/30 03:38:12;;;;;;;;;;;;;;;-6.68;100.00;98899.34;5043193;28;19959;-58
2023/01/30 03:40:38;;;;;;;;;;;;;;;-6.70;100.00;98900.88;5041390;28;19989;-59
2023/01/30 03:43:03;;;;;;;;;;;;;;;-6.74;100.00;98902.38;5043551;28;19989;-59
2023/01/30 03:45:29;;;;;;;;;;;;;;;-6.77;100.00;98894.75;5037186;28;19967;-59
2023/01/30 03:47:55;;;;;;;;;;;;;;;-6.80;100.00;98901.19;5025333;28;19980;-59
2023/01/30 03:50:20;;;;;;;;;;;;;;;-6.81;100.00;98895.34;5031353;28;20382;-60
2023/01/30 03:52:46;;;;;;;;;;;;;;;-6.79;100.00;98903.78;5033041;28;20799;-59
2023/01/30 03:55:15;;;;;;;;;;;;;;;-6.77;100.00;98901.34;5034873;28;19997;-59
2023/01/30 03:57:40;;;;;;;;;;;;;;;-6.75;100.00;98898.19;5034409;28;19955;-59
2023/01/30 04:00:07;;;;;;;;;;;;;;;-6.83;100.00;98896.06;5040062;28;19953;-60
2023/01/30 04:02:41;;;;;;;;;;;;;;;-6.79;100.00;98886.34;5033809;28;19988;-59
2023/01/30 04:05:07;;;;;;;;;;;;;;;-6.84;100.00;98887.72;5033479;28;20056;-59
2023/01/30 04:07:33;;;;;;;;;;;;;;;-6.88;100.00;98878.38;5036100;28;19959;-60
2023/01/30 04:09:59;;;;;;;;;;;;;;;-6.70;100.00;98879.31;5026476;28;20294;-59
2023/01/30 04:12:24;;;;;;;;;;;;;;;-6.76;100.00;98874.03;5033084;28;19957;-59
2023/01/30 04:14:54;;;;;;;;;;;;;;;-6.84;100.00;98869.41;5041569;28;19957;-60
2023/01/30 04:17:43;;;;;;;;;;;;;;;-6.84;100.00;98859.47;5035799;28;19993;-59
2023/01/30 04:20:32;;;;;;;;;;;;;;;-6.89;100.00;98866.69;5031790;28;19954;-60
2023/01/30 04:22:58;;;;;;;;;;;;;;;-6.70;100.00;98854.38;5031355;28;19966;-58
2023/01/30 04:25:25;;;;;;;;;;;;;;;-6.70;100.00;98841.06;5040609;28;19994;-59
2023/01/30 04:27:51;;;;;;;;;;;;;;;-6.69;100.00;98842.78;5035764;28;19964;-59
2023/01/30 04:30:20;;;;;;;;;;;;;;;-6.67;100.00;98831.28;5031776;28;19957;-59
2023/01/30 04:32:48;;;;;;;;;;;;;;;-6.47;100.00;98830.66;5027657;28;20030;-59
2023/01/30 04:35:14;;;;;;;;;;;;;;;-6.55;100.00;98822.78;5030292;28;19967;-59
2023/01/30 04:37:39;;;;;;;;;;;;;;;-6.48;100.00;98822.31;5032895;28;19961;-59
2023/01/30 04:40:06;;;;;;;;;;;;;;;-6.52;100.00;98807.97;5035249;28;19957;-59
2023/01/30 04:42:33;;;;;;;;;;;;;;;-6.57;100.00;98816.84;5027373;28;19958;-59
2023/01/30 04:45:19;;;;;;;;;;;;;;;-6.61;100.00;98819.97;5029824;28;19972;-58
2023/01/30 04:47:46;;;;;;;;;;;;;;;-6.68;100.00;98817.94;5030233;28;20506;-59
2023/01/30 04:50:11;;;;;;;;;;;;;;;-6.55;100.00;98809.47;5035157;28;20432;-58
2023/01/30 04:52:37;;;;;;;;;;;;;;;-6.49;100.00;98810.59;5040371;28;20029;-58
2023/01/30 04:55:03;;;;;;;;;;;;;;;-6.50;100.00;98815.53;5033337;28;19962;-59
2023/01/30 04:57:29;;;;;;;;;;;;;;;-6.54;100.00;98816.16;5036031;28;20781;-59
2023/01/30 04:59:54;;;;;;;;;;;;;;;-6.57;100.00;98816.00;5031359;28;19961;-58
2023/01/30 05:02:20;;;;;;;;;;;;;;;-6.41;100.00;98818.50;5032267;28;19982;-58
2023/01/30 05:04:47;;;;;;;;;;;;;;;-6.49;100.00;98819.72;5033448;28;20666;-59
2023/01/30 05:07:13;;;;;;;;;;;;;;;-6.52;100.00;98814.59;5034250;28;19955;-59
2023/01/30 05:09:38;;;;;;;;;;;;;;;-6.55;100.00;98814.44;5031096;28;19947;-59
2023/01/30 05:12:03;;;;;;;;;;;;;;;-6.54;100.00;98832.00;5033744;28;19957;-59
2023/01/30 05:14:29;;;;;;;;;;;;;;;-6.55;100.00;98835.25;5032951;28;20944;-59
2023/01/30 05:16:55;;;;;;;;;;;;;;;-6.51;100.00;98823.78;5031021;28;19953;-60
2023/01/30 05:19:20;;;;;;;;;;;;;;;-6.51;100.00;98809.69;5033710;28;20045;-59
2023/01/30 05:21:45;;;;;;;;;;;;;;;-6.52;100.00;98812.97;5032966;28;19975;-58
2023/01/30 05:24:11;;;;;;;;;;;;;;;-6.48;100.00;98814.81;5033766;28;19950;-58
2023/01/30 05:26:36;;;;;;;;;;;;;;;-6.47;100.00;98808.22;5033831;28;19984;-58
2023/01/30 05:29:02;;;;;;;;;;;;;;;-6.45;100.00;98793.34;5032592;28;19953;-59
2023/01/30 05:31:27;;;;;;;;;;;;;;;-6.49;100.00;98795.66;5032928;28;19986;-58
2023/01/30 05:33:53;;;;;;;;;;;;;;;-6.48;100.00;98794.88;5018449;28;20586;-58
2023/01/30 05:36:20;;;;;;;;;;;;;;;-6.42;100.00;98786.84;5031252;28;19947;-58
2023/01/30 05:38:45;;;;;;;;;;;;;;;-6.39;100.00;98788.63;5030474;28;20019;-59
2023/01/30 05:41:11;;;;;;;;;;;;;;;-6.31;100.00;98783.25;5033102;28;20034;-59
2023/01/30 05:43:37;;;;;;;;;;;;;;;-6.31;100.00;98775.75;5033226;28;20046;-59
2023/01/30 05:46:04;;;;;;;;;;;;;;;-6.15;100.00;98774.84;5033208;28;19978;-59
2023/01/30 05:48:29;;;;;;;;;;;;;;;-6.15;100.00;98774.84;5032126;28;19970;-59
2023/01/30 05:50:56;;;;;;;;;;;;;;;-6.14;100.00;98767.44;5032340;28;19954;-59
2023/01/30 05:53:22;;;;;;;;;;;;;;;-6.09;100.00;98770.16;5031153;28;20037;-59
2023/01/30 05:56:09;;;;;;;;;;;;;;;-6.07;100.00;98756.97;5028031;28;20507;-60
2023/01/30 05:58:34;;;;;;;;;;;;;;;-6.03;100.00;98748.03;5030262;28;19958;-59
2023/01/30 06:01:01;;;;;;;;;;;;;;;-6.03;100.00;98753.88;5030491;28;19976;-59
2023/01/30 06:03:26;;;;;;;;;;;;;;;-5.97;100.00;98765.75;5030541;28;19958;-58
2023/01/30 06:05:52;;;;;;;;;;;;;;;-5.95;100.00;98783.31;5029895;28;20400;-59
2023/01/30 06:08:17;;;;;;;;;;;;;;;-5.91;100.00;98783.53;5031357;28;20410;-60
2023/01/30 06:10:43;;;;;;;;;;;;;;;-5.90;100.00;98786.88;5031273;28;19990;-53
2023/01/30 06:13:09;;;;;;;;;;;;;;;-5.81;100.00;98795.59;5027615;28;19956;-56
2023/01/30 06:15:36;;;;;;;;;;;;;;;-5.82;100.00;98810.53;5029367;28;19955;-58
2023/01/30 06:18:01;;;;;;;;;;;;;;;-5.83;100.00;98799.69;5029670;28;20393;-57
2023/01/30 06:20:26;;;;;;;;;;;;;;;-5.75;100.00;98795.06;5029174;28;19952;-57
2023/01/30 06:22:52;;;;;;;;;;;;;;;-5.69;100.00;98762.91;5029161;28;19977;-59
2023/01/30 06:25:17;;;;;;;;;;;;;;;-5.70;100.00;98768.66;5032002;28;20568;-57
2023/01/30 06:27:44;;;;;;;;;;;;;;;-5.63;100.00;98760.66;5033844;28;19996;-59
2023/01/30 06:30:10;;;;;;;;;;;;;;;-5.62;100.00;98770.75;5028760;28;19982;-58
2023/01/30 06:32:35;;;;;;;;;;;;;;;-5.58;100.00;98772.59;5033173;28;19993;-60
2023/01/30 06:35:01;;;;;;;;;;;;;;;-5.60;100.00;98788.28;5039019;28;20357;-59
2023/01/30 06:37:26;;;;;;;;;;;;;;;-5.54;100.00;98794.41;5032505;28;20589;-59
2023/01/30 06:39:52;;;;;;;;;;;;;;;-5.47;100.00;98787.22;5044578;28;19956;-58
2023/01/30 06:42:17;;;;;;;;;;;;;;;-5.41;100.00;98770.00;5031738;28;19963;-60
2023/01/30 06:44:42;;;;;;;;;;;;;;;-5.32;100.00;98757.94;5033781;28;20483;-59
2023/01/30 06:47:08;;;;;;;;;;;;;;;-5.31;100.00;98750.50;5034725;28;20387;-58
2023/01/30 06:49:34;;;;;;;;;;;;;;;-5.27;100.00;98741.50;5033743;28;20127;-58
2023/01/30 06:51:59;;;;;;;;;;;;;;;-5.17;100.00;98734.47;5036055;28;20555;-58
2023/01/30 06:54:24;;;;;;;;;;;;;;;-5.20;100.00;98723.50;5039099;28;20590;-60
2023/01/30 06:56:50;;;;;;;;;;;;;;;-5.23;100.00;98721.72;5034954;28;19969;-56
2023/01/30 06:59:15;;;;;;;;;;;;;;;-5.16;100.00;98718.69;5033763;28;20495;-58
2023/01/30 07:01:41;;;;;;;;;;;;;;;-4.98;100.00;98721.13;5032557;28;19954;-58
2023/01/30 07:04:06;;;;;;;;;;;;;;;-4.96;100.00;98707.03;5034070;28;19960;-59
2023/01/30 07:06:32;;;;;;;;;;;;;;;-4.95;100.00;98726.25;5039013;28;19981;-59
2023/01/30 07:08:58;;;;;;;;;;;;;;;-4.91;100.00;98728.09;5031077;28;20005;-60
2023/01/30 07:11:24;;;;;;;;;;;;;;;-4.82;100.00;98722.63;5034075;28;20045;-58
2023/01/30 07:13:49;;;;;;;;;;;;;;;-4.72;100.00;98729.75;5036295;28;20066;-57
2023/01/30 07:16:14;;;;;;;;;;;;;;;-4.64;100.00;98726.78;5037234;28;19996;-64
2023/01/30 07:18:40;;;;;;;;;;;;;;;-4.58;100.00;98733.66;5035025;28;20405;-59
2023/01/30 07:21:06;;;;;;;;;;;;;;;-4.49;100.00;98720.69;5036110;28;19947;-59
2023/01/30 07:23:34;;;;;;;;;;;;;;;-4.44;100.00;98726.72;5034812;28;19962;-60
2023/01/30 07:26:03;;;;;;;;;;;;;;;-4.36;100.00;98725.41;5034465;28;20024;-57
2023/01/30 07:28:29;;;;;;;;;;;;;;;-4.26;100.00;98724.97;5032627;28;19993;-59
2023/01/30 07:30:57;;;;;;;;;;;;;;;-4.11;100.00;98719.72;5034451;28;20024;-58
2023/01/30 07:33:23;;;;;;;;;;;;;;;-4.07;100.00;98719.91;5032708;28;19978;-57
2023/01/30 07:35:48;;;;;;;;;;;;;;;-3.97;100.00;98726.13;5032546;28;19991;-58
2023/01/30 07:38:14;;;;;;;;;;;;;;;-3.89;100.00;98730.66;5029556;28;20055;-58
2023/01/30 07:40:39;;;;;;;;;;;;;;;-3.79;100.00;98727.72;5029820;28;19987;-58
2023/01/30 07:43:06;;;;;;;;;;;;;;;-3.61;100.00;98724.19;5031849;28;19950;-59
2023/01/30 07:45:45;;;;;;;;;;;;;;;-3.47;100.00;98715.53;5030976;28;20447;-59
2023/01/30 07:48:12;;;;;;;;;;;;;;;-3.31;100.00;98725.34;5032220;28;20414;-63
2023/01/30 07:50:38;;;;;;;;;;;;;;;-3.13;100.00;98736.03;5032712;28;20415;-57
2023/01/30 07:53:04;;;;;;;;;;;;;;;-3.02;100.00;98747.31;5032075;28;19992;-59
2023/01/30 07:55:30;;;;;;;;;;;;;;;-2.91;100.00;98748.53;5031879;28;20464;-59
2023/01/30 07:57:55;;;;;;;;;;;;;;;-2.72;100.00;98741.66;5033334;28;20420;-59
2023/01/30 08:00:21;;;;;;;;;;;;;;;-2.53;100.00;98737.31;5034112;28;20020;-60
2023/01/30 08:02:47;;;;;;;;;;;;;;;-2.46;100.00;98735.88;5034651;28;20496;-59
2023/01/30 08:05:13;;;;;;;;;;;;;;;-2.30;100.00;98733.06;5034980;28;20490;-58
2023/01/30 08:07:39;;;;;;;;;;;;;;;-2.09;100.00;98731.25;5034631;28;19962;-60
2023/01/30 08:10:05;;;;;;;;;;;;;;;-2.07;100.00;98724.59;5033832;28;19957;-59
2023/01/30 08:12:30;;;;;;;;;;;;;;;-2.00;100.00;98718.13;5033312;28;19958;-56
2023/01/30 08:14:55;;;;;;;;;;;;;;;-1.90;100.00;98731.03;5033754;28;19954;-58
2023/01/30 08:17:21;;;;;;;;;;;;;;;-1.88;100.00;98726.06;5034844;28;19962;-59
2023/01/30 08:19:47;;;;;;;;;;;;;;;-1.81;100.00;98717.91;5034421;28;19949;-58
2023/01/30 08:22:13;;;;;;;;;;;;;;;-1.76;100.00;98710.50;5032481;28;19964;-58
2023/01/30 08:24:39;;;;;;;;;;;;;;;-1.82;100.00;98707.81;5029756;28;19986;-57
2023/01/30 08:27:04;;;;;;;;;;;;;;;-1.85;100.00;98693.47;5030001;28;20377;-59
2023/01/30 08:29:30;;;;;;;;;;;;;;;-1.78;100.00;98692.03;5032513;28;19953;-57
2023/01/30 08:31:59;;;;;;;;;;;;;;;-1.74;100.00;98692.13;5028582;28;19954;-59
2023/01/30 08:34:25;;;;;;;;;;;;;;;-1.69;100.00;98673.03;5030427;28;20010;-58
2023/01/30 08:36:50;;;;;;;;;;;;;;;-1.67;100.00;98678.13;5033162;28;20444;-59
2023/01/30 08:39:16;;;;;;;;;;;;;;;-1.54;100.00;98676.00;5032215;28;19959;-58
2023/01/30 08:41:42;;;;;;;;;;;;;;;-1.47;100.00;98667.81;5039643;28;20024;-59
2023/01/30 08:44:10;;;;;;;;;;;;;;;-1.48;100.00;98670.28;5032948;28;20464;-56
2023/01/30 08:46:36;;;;;;;;;;;;;;;-1.31;100.00;98666.59;5040226;28;20768;-59
2023/01/30 08:49:02;;;;;;;;;;;;;;;-1.07;100.00;98669.81;5031208;28;20021;-55
2023/01/30 08:51:27;;;;;;;;;;;;;;;-0.99;100.00;98660.81;5028479;28;19993;-57
2023/01/30 08:53:53;;;;;;;;;;;;;;;-0.58;100.00;98661.00;5029028;28;20429;-59
2023/01/30 08:56:18;;;;;;;;;;;;;;;-0.48;100.00;98661.28;5038421;28;19956;-61
2023/01/30 08:58:45;;;;;;;;;;;;;;;-0.20;100.00;98649.34;5031411;28;20335;-61
2023/01/30 09:01:11;;;;;;;;;;;;;;;-0.10;100.00;98647.09;5029568;28;19958;-63
2023/01/30 09:03:36;;;;;;;;;;;;;;;0.50;100.00;98631.59;5035003;28;20487;-60
2023/01/30 09:06:02;;;;;;;;;;;;;;;1.31;100.00;98628.94;5029562;28;20431;-61
2023/01/30 09:08:28;;;;;;;;;;;;;;;1.50;100.00;98619.97;5029627;28;20392;-62
2023/01/30 09:11:01;;;;;;;;;;;;;;;1.48;100.00;98624.16;5033952;28;20011;-60
2023/01/30 09:13:26;;;;;;;;;;;;;;;1.64;100.00;98629.50;5029716;28;19962;-59
2023/01/30 09:15:52;;;;;;;;;;;;;;;1.52;100.00;98613.28;5031164;28;20220;-59
2023/01/30 09:18:17;;;;;;;;;;;;;;;1.38;100.00;98618.97;5032384;28;20026;-58
2023/01/30 09:20:43;;;;;;;;;;;;;;;1.21;100.00;98622.88;5045492;28;20346;-57
2023/01/30 09:23:08;;;;;;;;;;;;;;;1.15;100.00;98622.75;5027793;28;20241;-57
2023/01/30 09:25:34;;;;;;;;;;;;;;;1.29;100.00;98612.91;5030413;28;20028;-55
2023/01/30 09:27:59;;;;;;;;;;;;;;;1.57;100.00;98604.13;5033506;28;19959;-56
2023/01/30 09:30:25;;;;;;;;;;;;;;;1.44;100.00;98613.19;5031645;28;20050;-59
2023/01/30 09:32:50;;;;;;;;;;;;;;;1.84;100.00;98610.44;5030367;28;20010;-59
2023/01/30 09:35:16;;;;;;;;;;;;;;;2.52;100.00;98590.28;5029879;28;20090;-58
2023/01/30 09:37:48;;;;;;;;;;;;;;;2.50;100.00;98599.56;5030134;28;20403;-57
2023/01/30 09:40:20;;;;;;;;;;;;;;;2.49;100.00;98587.72;5032072;28;19952;-57
2023/01/30 09:43:02;;;;;;;;;;;;;;;2.41;100.00;98604.50;5032967;28;20001;-57
2023/01/30 09:45:42;;;;;;;;;;;;;;;2.40;100.00;98590.13;5030065;28;19987;-60
2023/01/30 09:48:10;;;;;;;;;;;;;;;2.48;100.00;98586.00;5027172;28;20004;-59
2023/01/30 09:50:42;;;;;;;;;;;;;;;2.74;100.00;98582.13;5027865;28;19964;-58
2023/01/30 09:53:21;;;;;;;;;;;;;;;3.10;100.00;98573.19;5028239;28;19959;-59
2023/01/30 09:55:46;;;;;;;;;;;;;;;2.78;100.00;98575.41;5031468;28;19955;-59
2023/01/30 09:58:21;;;;;;;;;;;;;;;2.41;100.00;98565.69;5030021;28;20319;-59
2023/01/30 10:00:48;;;;;;;;;;;;;;;2.33;100.00;98547.91;5026042;28;19956;-59
2023/01/30 10:03:16;;;;;;;;;;;;;;;1.96;100.00;98544.03;5027442;28;20373;-59
2023/01/30 10:05:41;;;;;;;;;;;;;;;1.31;100.00;98533.84;5029282;28;19964;-59
2023/01/30 10:08:07;;;;;;;;;;;;;;;1.18;100.00;98524.38;5027953;28;20393;-59
2023/01/30 10:10:43;;;;;;;;;;;;;;;1.08;100.00;98526.69;5028666;28;20079;-59
2023/01/30 10:13:20;;;;;;;;;;;;;;;1.08;100.00;98503.97;5031405;28;19954;-59
2023/01/30 10:15:52;;;;;;;;;;;;;;;1.19;100.00;98500.78;5031415;28;20419;-58
2023/01/30 10:18:21;;;;;;;;;;;;;;;1.07;100.00;98503.13;5027324;28;19960;-58
2023/01/30 10:20:46;;;;;;;;;;;;;;;1.32;100.00;98496.78;5031638;28;19980;-60
2023/01/30 10:23:30;;;;;;;;;;;;;;;1.26;100.00;98499.22;5029142;28;20342;-60
2023/01/30 10:26:01;;;;;;;;;;;;;;;1.58;100.00;98480.34;5033699;28;19999;-59
2023/01/30 10:28:32;;;;;;;;;;;;;;;1.83;100.00;98467.19;5032116;28;19962;-58
2023/01/30 10:31:01;;;;;;;;;;;;;;;2.18;100.00;98454.97;5038382;28;19958;-59
2023/01/30 10:33:28;;;;;;;;;;;;;;;2.59;100.00;98455.41;5028695;28;19952;-60
2023/01/30 10:36:00;;;;;;;;;;;;;;;2.81;100.00;98448.00;5031477;28;20014;-61
2023/01/30 10:38:49;;;;;;;;;;;;;;;3.15;100.00;98453.34;5029925;28;19957;-60
2023/01/30 10:41:18;;;;;;;;;;;;;;;3.28;100.00;98441.63;5018704;28;19972;-60
2023/01/30 10:44:04;;;;;;;;;;;;;;;3.12;100.00;98433.09;5026055;28;20324;-60
2023/01/30 10:46:30;;;;;;;;;;;;;;;3.10;100.00;98422.06;5026212;28;20414;-59
2023/01/30 10:49:03;;;;;;;;;;;;;;;3.23;100.00;98415.41;5028083;28;19954;-59
2023/01/30 10:51:55;;;;;;;;;;;;;;;3.34;100.00;98411.28;5027766;28;19951;-59
2023/01/30 10:54:44;;;;;;;;;;;;;;;3.49;100.00;98410.50;5021900;28;19957;-58
2023/01/30 10:57:37;;;;;;;;;;;;;;;3.61;100.00;98413.09;5008006;28;19987;-59
2023/01/30 11:00:09;;;;;;;;;;;;;;;3.62;100.00;98397.91;5006614;28;20066;-59
2023/01/30 11:02:37;;;;;;;;;;;;;;;3.79;100.00;98395.44;5006756;28;20501;-59
2023/01/30 11:05:11;;;;;;;;;;;;;;;3.97;100.00;98379.44;5009992;28;19979;-59
2023/01/30 11:07:37;;;;;;;;;;;;;;;4.04;100.00;98371.00;5011475;28;19952;-60
2023/01/30 11:10:14;;;;;;;;;;;;;;;3.93;100.00;98368.44;4996546;28;19964;-61
2023/01/30 11:12:40;;;;;;;;;;;;;;;3.79;100.00;98364.16;4995467;28;19965;-59
2023/01/30 11:15:07;;;;;;;;;;;;;;;3.94;100.00;98354.09;5009768;28;19959;-60
2023/01/30 11:17:38;;;;;;;;;;;;;;;3.83;100.00;98346.44;5001653;28;20041;-58
2023/01/30 11:20:11;;;;;;;;;;;;;;;3.66;100.00;98353.97;5011626;28;20012;-59
2023/01/30 11:22:36;;;;;;;;;;;;;;;3.60;100.00;98346.38;4998802;28;20083;-59
2023/01/30 11:25:10;;;;;;;;;;;;;;;3.43;100.00;98334.47;5010726;28;20194;-59
2023/01/30 11:27:35;;;;;;;;;;;;;;;3.34;100.00;98335.28;5000207;28;20291;-59
2023/01/30 11:30:16;;;;;;;;;;;;;;;3.38;100.00;98326.84;5011858;28;20375;-60
2023/01/30 11:32:43;;;;;;;;;;;;;;;3.21;100.00;98338.59;5013606;28;19964;-60
2023/01/30 11:35:08;;;;;;;;;;;;;;;3.09;100.00;98344.44;5025891;28;19988;-59
2023/01/30 11:37:44;;;;;;;;;;;;;;;3.29;100.00;98336.94;5033854;28;20353;-60
2023/01/30 11:40:22;;;;;;;;;;;;;;;4.33;100.00;98321.16;5030497;28;19957;-59
2023/01/30 11:42:49;;;;;;;;;;;;;;;4.67;100.00;98306.75;5029251;28;19986;-58
2023/01/30 11:45:16;;;;;;;;;;;;;;;4.88;100.00;98298.31;5030984;28;19971;-58
2023/01/30 11:47:55;;;;;;;;;;;;;;;5.18;100.00;98298.19;5030569;28;20074;-60
2023/01/30 11:50:22;;;;;;;;;;;;;;;5.62;100.00;98282.78;5032084;28;20420;-59
2023/01/30 11:52:48;;;;;;;;;;;;;;;5.89;100.00;98264.00;5028974;28;19956;-60
2023/01/30 11:55:16;;;;;;;;;;;;;;;6.21;100.00;98279.91;5030343;28;20009;-60
2023/01/30 11:57:47;;;;;;;;;;;;;;;6.23;100.00;98269.72;5030060;28;19952;-60
2023/01/30 12:00:18;;;;;;;;;;;;;;;6.34;99.21;98252.66;5031935;28;19966;-57
2023/01/30 12:02:46;;;;;;;;;;;;;;;6.40;100.00;98248.38;5032602;28;19959;-59
2023/01/30 12:05:21;;;;;;;;;;;;;;;6.55;100.00;98247.38;5029487;28;20058;-58
2023/01/30 12:07:49;;;;;;;;;;;;;;;6.77;99.59;98242.91;5032774;28;19974;-58
2023/01/30 12:10:24;;;;;;;;;;;;;;;6.93;96.56;98230.84;5032772;28;19946;-59
2023/01/30 12:12:51;;;;;;;;;;;;;;;7.04;95.30;98219.69;5030844;28;19992;-59
2023/01/30 12:15:28;;;;;;;;;;;;;;;7.00;96.40;98212.91;5032966;28;19955;-59
2023/01/30 12:17:56;;;;;;;;;;;;;;;7.01;96.26;98191.66;5030850;28;20679;-56
2023/01/30 12:20:28;;;;;;;;;;;;;;;7.13;95.72;98196.63;5037053;28;20423;-59
2023/01/30 12:22:56;;;;;;;;;;;;;;;7.23;95.88;98171.84;5033820;28;19962;-60
2023/01/30 12:25:25;;;;;;;;;;;;;;;7.17;94.13;98182.16;5031172;28;19977;-58
2023/01/30 12:27:53;;;;;;;;;;;;;;;7.06;96.18;98172.06;5031033;28;20552;-59
2023/01/30 12:30:23;;;;;;;;;;;;;;;7.21;97.01;98156.56;5031177;28;19985;-59
2023/01/30 12:32:58;;;;;;;;;;;;;;;7.14;97.01;98157.53;5032294;28;20000;-58
2023/01/30 12:35:30;;;;;;;;;;;;;;;7.10;98.54;98149.94;5034924;28;19961;-58
2023/01/30 12:38:02;;;;;;;;;;;;;;;7.13;99.23;98157.56;5028680;28;19950;-59
2023/01/30 12:40:43;;;;;;;;;;;;;;;7.24;98.68;98143.81;5031155;28;19964;-58
2023/01/30 12:43:15;;;;;;;;;;;;;;;7.19;96.80;98158.31;5029066;28;20160;-59
2023/01/30 12:45:44;;;;;;;;;;;;;;;7.30;94.58;98193.84;5030077;28;19970;-59
2023/01/30 12:48:30;;;;;;;;;;;;;;;7.21;96.43;98155.75;5031523;28;19972;-59
2023/01/30 12:51:01;;;;;;;;;;;;;;;6.99;98.30;98147.53;5031710;28;19940;-59
2023/01/30 12:53:27;;;;;;;;;;;;;;;6.92;100.00;98156.09;5031378;28;20045;-58